Portada
METAR-TAF:

METAR-TAF

Aeropuertos :

Valcartier, Quebec, Canadá

latitud: 46-54N, longitud: 071-30W, altitud: 168 m

Observación

El informe se hizo hace 13 minutos, a las 19:00 UTC
Viento 3 kt del suroeste
Temperatura 30°C
Humedad 35%
Presión 1019 hPa
Visibilidad: 14.5 km
Cielo despejado

METAR: CYOY 211900Z AUTO 23003KT 9SM CLR 30/13 A3009 RMK SLP190

Hora: 15:13 (19:13 UTC)

Pronóstico

El informe se hizo hace 25 horas y 43 minutos, a las 17:30 UTC
Pronóstico válido del 20 a las 18 UTC al 21 a las 06 UTC
Viento 8 kt del oeste-suroeste
Visibilidad: 10 km
Nubes dispersas a una altura de 24000 ft
Evolucionando progresivamente
del 20 a las 23 UTC al 21 a las 01 UTC
Viento 3 kt con dirección variable

TAF: CYOY 201730Z 2018/2106 24008KT P6SM SCT240 BECMG 2023/2101 VRB03KT RMK FCST BASED ON AUTO OBS 201900-210600Z. NXT FCST BY 210000Z

Observaciones y pronósticos meteorológicos de más de 4000 aeropuertos (mensajes METAR y TAF).

Los puntos amarillos y rojos representan las estaciones disponibles.

Ponga el ratón en el punto deseado para ver el nombre de la estación.

Haga clic para ver las observaciones y los pronósticos meteorológicos.

Para cambiar el mapa : haga clic en los botones verdes con una cruz de color negro para hacer un zoom, en el botón verde con un guión para alejar o en las flechas verdes para mapas adyacentes.


METAR-TAF: